createdAt,value
2022-09-24T00:01:19.363Z,10.88
2022-09-24T00:08:55.187Z,10.82
2022-09-24T00:16:34.105Z,10.75
2022-09-24T00:24:10.096Z,10.72
2022-09-24T00:31:45.371Z,10.68
2022-09-24T00:39:19.107Z,10.63
2022-09-24T00:46:54.170Z,10.58
2022-09-24T00:54:29.774Z,10.51
2022-09-24T01:02:05.280Z,10.48
2022-09-24T01:09:39.007Z,10.45
2022-09-24T01:17:24.637Z,10.45
2022-09-24T01:25:03.227Z,10.44
2022-09-24T01:32:43.087Z,10.46
2022-09-24T01:40:18.468Z,10.45
2022-09-24T01:47:53.831Z,10.47
2022-09-24T01:55:31.143Z,10.47
2022-09-24T02:03:12.098Z,10.47
2022-09-24T02:10:52.688Z,10.51
2022-09-24T02:18:34.266Z,10.57
2022-09-24T02:26:09.109Z,10.50
2022-09-24T02:34:08.160Z,10.48
2022-09-24T02:41:42.835Z,10.49
2022-09-24T02:49:18.460Z,10.46
2022-09-24T02:56:52.702Z,10.49
2022-09-24T03:04:29.419Z,10.54
2022-09-24T03:12:03.365Z,10.56
2022-09-24T03:19:38.340Z,10.50
2022-09-24T03:27:11.807Z,10.52
2022-09-24T03:34:46.829Z,10.56
2022-09-24T03:42:20.277Z,10.59
2022-09-24T03:49:55.551Z,10.57
2022-09-24T03:57:29.434Z,10.60
2022-09-24T04:05:06.672Z,10.59
2022-09-24T04:12:40.366Z,10.60
2022-09-24T04:20:15.506Z,10.62
2022-09-24T04:27:54.176Z,10.63
2022-09-24T04:35:31.067Z,10.66
2022-09-24T04:43:06.098Z,10.65
2022-09-24T04:50:45.727Z,10.63
2022-09-24T04:58:20.547Z,10.58
2022-09-24T05:05:55.486Z,10.60
2022-09-24T05:13:29.301Z,10.47
2022-09-24T05:21:04.449Z,10.52
2022-09-24T05:28:40.492Z,10.58
2022-09-24T05:36:16.165Z,10.62
2022-09-24T05:43:49.986Z,10.64
2022-09-24T05:51:24.923Z,10.64
2022-09-24T05:59:00.925Z,10.65
2022-09-24T06:06:36.484Z,10.72
2022-09-24T06:14:11.212Z,10.76
2022-09-24T06:21:46.184Z,10.73
2022-09-24T06:29:20.143Z,10.76
2022-09-24T06:36:57.105Z,10.82
2022-09-24T06:44:31.301Z,10.94
2022-09-24T06:52:06.304Z,11.05
2022-09-24T06:59:40.171Z,11.13
2022-09-24T07:07:30.326Z,11.23
2022-09-24T07:15:04.852Z,11.34
2022-09-24T07:22:40.954Z,11.44
2022-09-24T07:30:14.717Z,11.52
2022-09-24T07:37:49.844Z,11.58
2022-09-24T07:45:23.859Z,11.69
2022-09-24T07:52:58.900Z,11.86
2022-09-24T08:00:32.383Z,11.99
2022-09-24T08:08:07.698Z,12.09
2022-09-24T08:15:41.854Z,12.18
2022-09-24T08:23:16.967Z,12.32
2022-09-24T08:30:50.858Z,12.46
2022-09-24T08:38:26.017Z,12.75
2022-09-24T08:46:21.172Z,12.95
2022-09-24T08:54:01.171Z,13.15
2022-09-24T09:01:44.726Z,13.27
2022-09-24T09:09:22.808Z,13.40
2022-09-24T09:17:00.906Z,13.47
2022-09-24T09:24:44.668Z,13.58
2022-09-24T09:32:38.356Z,13.64
2022-09-24T09:40:31.540Z,13.76
2022-09-24T09:48:06.890Z,13.99
2022-09-24T09:55:42.040Z,14.15
2022-09-24T10:03:26.993Z,14.21
2022-09-24T10:11:03.670Z,14.24
2022-09-24T10:18:42.773Z,14.28
2022-09-24T10:26:18.079Z,14.33
2022-09-24T10:33:55.953Z,14.42
2022-09-24T10:41:32.633Z,14.51
2022-09-24T10:49:18.519Z,14.62
2022-09-24T10:56:56.299Z,14.73
2022-09-24T11:04:40.287Z,14.80
2022-09-24T11:12:27.887Z,14.92
2022-09-24T11:20:21.449Z,15.10
2022-09-24T11:28:12.142Z,15.22
2022-09-24T11:36:00.899Z,15.34
2022-09-24T11:43:57.363Z,15.42
2022-09-24T11:51:44.716Z,15.45
2022-09-24T11:59:28.490Z,15.51
2022-09-24T12:07:13.304Z,15.53
2022-09-24T12:14:54.335Z,15.53
2022-09-24T12:22:29.841Z,15.68
2022-09-24T12:30:34.063Z,15.72
2022-09-24T12:38:12.760Z,15.80
2022-09-24T12:45:47.951Z,15.91
2022-09-24T12:53:25.316Z,15.96
2022-09-24T13:01:28.588Z,16.01
2022-09-24T13:09:03.190Z,16.11
2022-09-24T13:16:42.273Z,16.13
2022-09-24T13:24:28.111Z,16.21
2022-09-24T13:32:04.252Z,16.33
2022-09-24T13:39:44.173Z,16.46
2022-09-24T13:47:30.288Z,16.56
2022-09-24T13:55:10.114Z,16.68
2022-09-24T14:02:55.151Z,16.76
2022-09-24T14:10:29.751Z,16.79
2022-09-24T14:18:09.246Z,16.86
2022-09-24T14:25:48.698Z,16.83
2022-09-24T14:33:28.200Z,16.83
2022-09-24T14:41:05.271Z,16.80
2022-09-24T14:48:41.099Z,16.80
2022-09-24T14:56:20.338Z,16.78
2022-09-24T15:03:59.375Z,16.76
2022-09-24T15:11:35.342Z,16.73
2022-09-24T15:19:19.991Z,16.71
2022-09-24T15:27:02.195Z,16.67
2022-09-24T15:34:37.256Z,16.65
2022-09-24T15:42:10.767Z,16.59
2022-09-24T15:49:46.050Z,16.52
2022-09-24T15:57:19.774Z,16.48
2022-09-24T16:05:02.691Z,16.44
2022-09-24T16:12:38.183Z,16.39
2022-09-24T16:20:13.245Z,16.34
2022-09-24T16:27:46.821Z,16.23
2022-09-24T16:35:21.830Z,16.12
2022-09-24T16:42:55.472Z,16.01
2022-09-24T16:50:30.480Z,15.88
2022-09-24T16:58:04.003Z,15.72
2022-09-24T17:05:40.654Z,15.65
2022-09-24T17:13:15.663Z,15.56
2022-09-24T17:21:00.958Z,15.45
2022-09-24T17:28:35.085Z,15.40
2022-09-24T17:36:12.443Z,15.34
2022-09-24T17:43:46.258Z,15.28
2022-09-24T17:51:23.093Z,15.21
2022-09-24T17:58:57.363Z,15.16
2022-09-24T18:06:33.679Z,15.08
2022-09-24T18:14:07.365Z,15.04
2022-09-24T18:21:42.455Z,14.98
2022-09-24T18:29:16.921Z,14.92
2022-09-24T18:36:51.903Z,14.84
2022-09-24T18:44:25.589Z,14.82
2022-09-24T18:52:00.622Z,14.78
2022-09-24T18:59:38.745Z,14.69
2022-09-24T19:07:13.776Z,14.61
2022-09-24T19:14:47.966Z,14.53
2022-09-24T19:22:23.039Z,14.48
2022-09-24T19:29:56.633Z,14.38
2022-09-24T19:37:32.391Z,14.33
2022-09-24T19:45:06.994Z,14.26
2022-09-24T19:52:42.060Z,14.23
2022-09-24T20:00:16.314Z,14.21
2022-09-24T20:07:51.315Z,14.16
2022-09-24T20:15:25.040Z,14.08
2022-09-24T20:23:00.452Z,14.02
2022-09-24T20:30:37.739Z,14.00
2022-09-24T20:38:13.100Z,13.98
2022-09-24T20:45:46.898Z,13.95
2022-09-24T20:53:21.991Z,13.91
2022-09-24T21:00:55.491Z,13.82
2022-09-24T21:08:32.193Z,13.82
2022-09-24T21:16:10.073Z,13.79
2022-09-24T21:23:48.159Z,13.70
2022-09-24T21:31:24.136Z,13.74
2022-09-24T21:39:01.186Z,13.77
2022-09-24T21:46:35.681Z,13.74
2022-09-24T21:54:15.484Z,13.72
2022-09-24T22:01:49.434Z,13.67
2022-09-24T22:09:26.516Z,13.66
2022-09-24T22:17:00.247Z,13.63
2022-09-24T22:24:35.382Z,13.59
2022-09-24T22:32:08.882Z,13.55
2022-09-24T22:39:43.960Z,13.57
2022-09-24T22:47:17.487Z,13.57
2022-09-24T22:54:52.524Z,13.58
2022-09-24T23:02:26.021Z,13.58
2022-09-24T23:10:01.153Z,13.56
2022-09-24T23:17:36.863Z,13.52
2022-09-24T23:25:12.015Z,13.56
2022-09-24T23:32:45.540Z,13.52
2022-09-24T23:40:20.646Z,13.51
2022-09-24T23:47:54.350Z,13.48
2022-09-24T23:55:29.376Z,13.48
